Time;durP1;ratioP1;P1;durP2;ratioP2;P2;SDS_P1;SDS_P2;PMS_P1;PMS_P2;Temp;Humidity;BMP_temperature;BMP_pressure;BME280_temperature;BME280_humidity;BME280_pressure;Samples;Min_cycle;Max_cycle;Signal;HPM_P1;HPM_P2
2021/12/02 00:01:09;;;;;;;;;;;;;;;9.72;62.54;98829.78;5003234;28;7268;-87
2021/12/02 00:03:36;;;;;;;;;;;;;;;9.70;61.63;98833.09;5018084;28;7042;-87
2021/12/02 00:06:06;;;;;;;;;;;;;;;9.70;61.78;98845.91;5005194;28;8393;-88
2021/12/02 00:08:32;;;;;;;;;;;;;;;9.69;62.16;98845.03;4988605;28;6980;-87
2021/12/02 00:10:58;;;;;;;;;;;;;;;9.69;62.33;98847.56;5004812;28;7135;-87
2021/12/02 00:13:28;;;;;;;;;;;;;;;9.71;62.45;98850.19;4964858;28;6971;-87
2021/12/02 00:15:57;;;;;;;;;;;;;;;9.70;62.12;98846.75;4968364;28;7683;-87
2021/12/02 00:21:06;;;;;;;;;;;;;;;9.69;62.35;98847.56;5005104;28;8096;-87
2021/12/02 00:23:56;;;;;;;;;;;;;;;9.68;62.40;98842.44;4973192;28;7196;-87
2021/12/02 00:26:22;;;;;;;;;;;;;;;9.65;62.64;98848.34;4966033;28;7291;-87
2021/12/02 00:28:55;;;;;;;;;;;;;;;9.68;62.06;98847.56;4987918;28;7081;-87
2021/12/02 00:31:29;;;;;;;;;;;;;;;9.68;62.16;98853.53;5004353;28;8781;-87
2021/12/02 00:33:59;;;;;;;;;;;;;;;9.70;62.52;98867.22;4987125;28;7002;-87
2021/12/02 00:36:29;;;;;;;;;;;;;;;9.73;62.37;98869.00;4988610;28;7449;-87
2021/12/02 00:38:57;;;;;;;;;;;;;;;9.77;61.97;98860.59;4968036;28;8272;-87
2021/12/02 00:41:27;;;;;;;;;;;;;;;9.78;62.51;98859.75;4972910;28;7212;-87
2021/12/02 00:43:57;;;;;;;;;;;;;;;9.80;61.64;98863.22;4985482;28;6848;-87
2021/12/02 00:46:30;;;;;;;;;;;;;;;9.79;62.20;98856.38;4988192;28;8794;-87
2021/12/02 00:48:57;;;;;;;;;;;;;;;9.78;62.12;98857.22;4950661;28;8763;-87
2021/12/02 00:51:27;;;;;;;;;;;;;;;9.78;61.85;98858.88;4989526;28;7345;-87
2021/12/02 00:53:54;;;;;;;;;;;;;;;9.77;61.66;98857.16;4989776;28;7919;-87
2021/12/02 00:56:25;;;;;;;;;;;;;;;9.76;61.83;98866.53;4964054;28;8700;-87
2021/12/02 00:58:53;;;;;;;;;;;;;;;9.76;61.68;98868.22;5003235;28;6984;-87
2021/12/02 01:01:24;;;;;;;;;;;;;;;9.76;62.45;98860.53;4949309;28;7078;-87
2021/12/02 01:03:57;;;;;;;;;;;;;;;9.76;61.88;98870.78;4980121;28;8441;-87
2021/12/02 01:06:23;;;;;;;;;;;;;;;9.77;61.89;98862.28;5004527;28;7159;-87
2021/12/02 01:08:48;;;;;;;;;;;;;;;9.77;61.69;98864.81;4988163;28;7194;-87
2021/12/02 01:11:16;;;;;;;;;;;;;;;9.75;61.60;98859.66;5005211;28;7826;-87
2021/12/02 01:13:42;;;;;;;;;;;;;;;9.75;62.51;98867.34;4985793;28;7174;-87
2021/12/02 01:16:08;;;;;;;;;;;;;;;9.76;62.17;98866.53;4988276;28;7780;-87
2021/12/02 01:18:34;;;;;;;;;;;;;;;9.75;62.01;98872.44;4980592;28;8686;-87
2021/12/02 01:21:02;;;;;;;;;;;;;;;9.74;61.68;98863.06;4989134;28;7167;-87
2021/12/02 01:23:32;;;;;;;;;;;;;;;9.72;61.46;98870.72;4948334;28;7326;-87
2021/12/02 01:26:05;;;;;;;;;;;;;;;9.72;62.56;98870.72;5004096;28;8234;-87
2021/12/02 01:28:33;;;;;;;;;;;;;;;9.73;62.65;98871.56;4947267;28;9001;-87
2021/12/02 01:30:59;;;;;;;;;;;;;;;9.75;62.08;98872.44;5002406;28;7781;-87
2021/12/02 01:33:27;;;;;;;;;;;;;;;9.76;61.85;98878.44;4965852;28;7888;-87
2021/12/02 01:36:00;;;;;;;;;;;;;;;9.75;61.48;98880.13;5004334;28;6988;-87
2021/12/02 01:38:29;;;;;;;;;;;;;;;9.73;62.33;98871.56;4983324;28;6988;-87
2021/12/02 01:40:59;;;;;;;;;;;;;;;9.75;62.09;98879.28;4988062;28;7256;-87
2021/12/02 01:43:50;;;;;;;;;;;;;;;9.75;62.32;98876.72;4986479;28;7293;-87
2021/12/02 01:46:19;;;;;;;;;;;;;;;9.72;61.73;98874.94;4974854;28;6991;-87
2021/12/02 01:49:06;;;;;;;;;;;;;;;9.73;62.33;98876.66;4982574;28;7059;-87
2021/12/02 01:51:59;;;;;;;;;;;;;;;9.73;62.26;98876.66;4971503;28;8163;-87
2021/12/02 01:54:27;;;;;;;;;;;;;;;9.73;61.81;98876.66;4987233;28;7213;-87
2021/12/02 01:57:07;;;;;;;;;;;;;;;9.72;62.34;98880.94;4952812;28;8435;-87
2021/12/02 01:59:37;;;;;;;;;;;;;;;9.72;62.41;98877.50;4982644;28;7254;-87
2021/12/02 02:02:07;;;;;;;;;;;;;;;9.72;62.04;98880.06;5002974;28;7091;-87
2021/12/02 02:04:33;;;;;;;;;;;;;;;9.71;61.62;98879.22;4947021;28;6993;-87
2021/12/02 02:07:10;;;;;;;;;;;;;;;9.68;62.20;98876.53;4978091;28;6893;-87
2021/12/02 02:09:36;;;;;;;;;;;;;;;9.66;61.35;98890.16;5018161;28;7823;-87
2021/12/02 02:12:07;;;;;;;;;;;;;;;9.63;61.05;98885.81;4970409;28;7981;-87
2021/12/02 02:14:32;;;;;;;;;;;;;;;9.61;61.71;98890.03;4971003;28;7202;-87
2021/12/02 02:17:03;;;;;;;;;;;;;;;9.61;61.62;98887.47;5002065;28;7344;-87
2021/12/02 02:19:31;;;;;;;;;;;;;;;9.57;61.37;98881.38;4985827;28;7100;-87
2021/12/02 02:21:58;;;;;;;;;;;;;;;9.54;61.82;98885.56;4964837;28;6983;-87
2021/12/02 02:24:24;;;;;;;;;;;;;;;9.52;61.97;98890.63;4986940;28;7210;-87
2021/12/02 02:26:50;;;;;;;;;;;;;;;9.50;61.25;98888.81;4947593;28;7012;-87
2021/12/02 02:29:18;;;;;;;;;;;;;;;9.47;61.14;98894.75;5019732;28;7181;-87
2021/12/02 02:31:45;;;;;;;;;;;;;;;9.46;61.17;98887.88;4962951;28;7269;-87
2021/12/02 02:34:14;;;;;;;;;;;;;;;9.44;61.11;98890.41;4963400;28;6977;-87
2021/12/02 02:36:55;;;;;;;;;;;;;;;9.41;61.46;98887.75;5003391;28;8487;-87
2021/12/02 02:39:22;;;;;;;;;;;;;;;9.42;61.10;98894.63;4948070;28;9095;-87
2021/12/02 02:42:00;;;;;;;;;;;;;;;9.39;61.21;98888.53;4970585;28;8540;-87
2021/12/02 02:44:32;;;;;;;;;;;;;;;9.36;62.00;98880.75;4985925;28;6991;-87
2021/12/02 02:46:57;;;;;;;;;;;;;;;9.35;60.98;98881.59;4996458;28;6990;-87
2021/12/02 02:49:24;;;;;;;;;;;;;;;9.33;61.37;98875.56;4996730;28;8852;-87
2021/12/02 02:51:50;;;;;;;;;;;;;;;9.31;60.89;98881.50;4983812;28;8563;-87
2021/12/02 02:54:17;;;;;;;;;;;;;;;9.30;61.31;98882.34;4951907;28;7068;-88
2021/12/02 02:57:04;;;;;;;;;;;;;;;9.27;60.86;98879.72;4999273;28;6800;-87
2021/12/02 02:59:57;;;;;;;;;;;;;;;9.25;61.57;98875.38;4970277;28;7007;-88
2021/12/02 03:02:41;;;;;;;;;;;;;;;9.22;61.09;98877.81;4967087;28;7021;-88
2021/12/02 03:05:32;;;;;;;;;;;;;;;9.21;60.89;98870.97;4985460;28;7236;-88
2021/12/02 03:08:10;;;;;;;;;;;;;;;9.22;61.71;98880.38;4987654;28;7006;-88
2021/12/02 03:18:23;;;;;;;;;;;;;;;9.19;61.98;98888.84;4972119;28;6858;-88
2021/12/02 03:20:49;;;;;;;;;;;;;;;9.18;61.62;98882.00;4960243;28;7438;-88
2021/12/02 03:23:15;;;;;;;;;;;;;;;9.18;61.49;98882.00;4992244;28;7833;-88
2021/12/02 03:25:40;;;;;;;;;;;;;;;9.17;61.56;98873.44;4991078;28;7153;-88
2021/12/02 03:28:06;;;;;;;;;;;;;;;9.16;61.53;98873.38;5008303;28;7181;-88
2021/12/02 03:30:33;;;;;;;;;;;;;;;9.11;61.25;98869.84;5007483;28;7030;-88
2021/12/02 03:32:58;;;;;;;;;;;;;;;9.08;61.76;98869.75;5006537;28;7014;-88
2021/12/02 03:35:24;;;;;;;;;;;;;;;9.02;61.19;98868.75;5005797;28;6954;-88
2021/12/02 03:37:50;;;;;;;;;;;;;;;8.97;61.84;98875.41;5001570;28;7617;-88
2021/12/02 03:40:16;;;;;;;;;;;;;;;8.94;61.45;98867.66;4969927;28;7110;-87
2021/12/02 03:42:52;;;;;;;;;;;;;;;8.90;61.31;98868.41;4986693;28;8512;-87
2021/12/02 03:45:23;;;;;;;;;;;;;;;8.88;61.63;98870.00;5006662;28;7000;-88
2021/12/02 03:47:49;;;;;;;;;;;;;;;8.85;61.71;98880.16;4986388;28;7038;-87
2021/12/02 03:50:16;;;;;;;;;;;;;;;8.81;60.97;98884.28;4989043;28;7876;-87
2021/12/02 03:52:42;;;;;;;;;;;;;;;8.74;60.70;98880.69;4977403;28;8562;-87
2021/12/02 03:55:08;;;;;;;;;;;;;;;8.67;61.27;98883.88;4975238;28;7220;-87
2021/12/02 03:57:34;;;;;;;;;;;;;;;8.61;61.04;98884.53;4978116;28;7043;-86
2021/12/02 04:00:01;;;;;;;;;;;;;;;8.57;61.72;98881.84;4988018;28;7264;-86
2021/12/02 04:02:29;;;;;;;;;;;;;;;8.53;61.31;98880.03;4956573;28;7003;-86
2021/12/02 04:04:56;;;;;;;;;;;;;;;8.50;61.34;98882.44;4972090;28;7607;-86
2021/12/02 04:07:25;;;;;;;;;;;;;;;8.48;61.62;98879.84;4959436;28;7304;-86
2021/12/02 04:09:52;;;;;;;;;;;;;;;8.47;61.84;98886.63;4958141;28;7175;-86
2021/12/02 04:12:29;;;;;;;;;;;;;;;8.48;61.98;98890.91;4995577;28;6811;-86
2021/12/02 04:15:05;;;;;;;;;;;;;;;8.50;61.69;98877.31;4975765;28;7097;-85
2021/12/02 04:17:43;;;;;;;;;;;;;;;8.54;62.23;98886.88;5012431;28;7248;-85
2021/12/02 04:20:15;;;;;;;;;;;;;;;8.55;61.43;98878.38;5007952;28;7100;-86
2021/12/02 04:22:42;;;;;;;;;;;;;;;8.55;61.19;98881.81;4958472;28;6988;-85
2021/12/02 04:25:10;;;;;;;;;;;;;;;8.55;61.36;98878.38;4970440;28;8634;-86
2021/12/02 04:27:36;;;;;;;;;;;;;;;8.52;61.06;98879.16;4973624;28;6971;-86
2021/12/02 04:30:08;;;;;;;;;;;;;;;8.46;60.40;98884.88;4983673;28;8634;-86
2021/12/02 04:32:33;;;;;;;;;;;;;;;8.40;61.12;98878.72;4990776;28;7187;-86
2021/12/02 04:34:59;;;;;;;;;;;;;;;8.33;60.81;98883.63;4991693;28;6949;-86
2021/12/02 04:37:25;;;;;;;;;;;;;;;8.26;61.20;98886.81;4957432;28;7189;-86
2021/12/02 04:39:50;;;;;;;;;;;;;;;8.23;61.00;98879.03;4990810;28;6973;-86
2021/12/02 04:42:16;;;;;;;;;;;;;;;8.22;61.69;98891.78;5023238;28;7165;-86
2021/12/02 04:44:42;;;;;;;;;;;;;;;8.19;61.89;98884.88;4972421;28;7172;-86
2021/12/02 04:47:09;;;;;;;;;;;;;;;8.21;61.42;98885.78;4991217;28;7106;-86
2021/12/02 04:49:35;;;;;;;;;;;;;;;8.25;62.19;98889.31;4989031;28;7189;-86
2021/12/02 04:52:01;;;;;;;;;;;;;;;8.27;61.81;98885.13;4968222;28;7268;-86
2021/12/02 04:54:27;;;;;;;;;;;;;;;8.26;61.95;98891.03;5007399;28;7161;-86
2021/12/02 04:56:53;;;;;;;;;;;;;;;8.29;61.67;98891.13;4982322;28;6961;-86
2021/12/02 04:59:19;;;;;;;;;;;;;;;8.30;61.80;98893.75;4989234;28;7043;-86
2021/12/02 05:01:44;;;;;;;;;;;;;;;8.30;61.43;98895.41;4980526;28;6964;-85
2021/12/02 05:04:10;;;;;;;;;;;;;;;8.31;61.82;98892.06;5004635;28;8378;-86
2021/12/02 05:06:36;;;;;;;;;;;;;;;8.34;61.81;98897.28;4972423;28;7022;-86
2021/12/02 05:09:02;;;;;;;;;;;;;;;8.34;61.59;98895.56;4966544;28;6942;-86
2021/12/02 05:11:28;;;;;;;;;;;;;;;8.36;61.35;98905.84;5021825;28;7045;-86
2021/12/02 05:13:53;;;;;;;;;;;;;;;8.37;61.76;98909.28;4970689;28;6978;-86
2021/12/02 05:16:19;;;;;;;;;;;;;;;8.39;61.85;98913.59;5005747;28;6964;-86
2021/12/02 05:18:45;;;;;;;;;;;;;;;8.40;60.96;98914.47;4988410;28;6864;-86
2021/12/02 05:21:11;;;;;;;;;;;;;;;8.41;60.98;98911.97;5005077;28;8256;-86
2021/12/02 05:23:37;;;;;;;;;;;;;;;8.43;61.76;98905.22;4971346;28;7194;-86
2021/12/02 05:26:02;;;;;;;;;;;;;;;8.45;61.95;98921.47;4990654;28;6996;-86
2021/12/02 05:28:28;;;;;;;;;;;;;;;8.47;60.77;98921.53;4977137;28;6958;-86
2021/12/02 05:30:54;;;;;;;;;;;;;;;8.47;61.68;98922.38;4950891;28;6980;-86
2021/12/02 05:33:20;;;;;;;;;;;;;;;8.48;60.59;98919.00;4973564;28;6969;-86
2021/12/02 05:35:46;;;;;;;;;;;;;;;8.47;60.56;98917.25;4973484;28;7041;-86
2021/12/02 05:38:11;;;;;;;;;;;;;;;8.47;61.12;98916.41;4988407;28;7015;-86
2021/12/02 05:40:37;;;;;;;;;;;;;;;8.48;61.07;98913.03;4971391;28;6867;-86
2021/12/02 05:43:03;;;;;;;;;;;;;;;8.45;61.18;98907.81;4964315;28;7397;-86
2021/12/02 05:45:29;;;;;;;;;;;;;;;8.43;61.21;98904.34;4964249;28;7000;-87
2021/12/02 05:47:55;;;;;;;;;;;;;;;8.44;61.09;98908.63;4989420;28;7244;-86
2021/12/02 05:50:21;;;;;;;;;;;;;;;8.46;60.99;98914.69;4971791;28;7420;-87
2021/12/02 05:52:47;;;;;;;;;;;;;;;8.48;61.13;98920.69;5022359;28;6968;-86
2021/12/02 05:55:13;;;;;;;;;;;;;;;8.47;61.19;98908.75;4951701;28;6992;-86
2021/12/02 05:57:39;;;;;;;;;;;;;;;8.44;60.74;98898.41;5008372;28;8591;-87
2021/12/02 06:00:09;;;;;;;;;;;;;;;8.42;60.87;98907.72;5018888;28;6963;-86
2021/12/02 06:02:36;;;;;;;;;;;;;;;8.36;60.40;98910.94;5002461;28;7610;-88
2021/12/02 06:05:05;;;;;;;;;;;;;;;8.30;60.38;98910.72;4986908;28;6963;-87
2021/12/02 06:07:31;;;;;;;;;;;;;;;8.26;60.70;98922.56;4981246;28;6996;-87
2021/12/02 06:09:57;;;;;;;;;;;;;;;8.18;60.46;98919.72;4988203;28;7125;-86
2021/12/02 06:12:23;;;;;;;;;;;;;;;8.13;59.96;98916.16;5022509;28;7238;-87
2021/12/02 06:14:50;;;;;;;;;;;;;;;8.05;60.29;98925.22;5001327;28;6960;-86
2021/12/02 06:17:16;;;;;;;;;;;;;;;7.99;60.65;98935.22;4981309;28;6971;-88
2021/12/02 06:19:41;;;;;;;;;;;;;;;7.94;60.36;98942.72;4971661;28;6945;-86
2021/12/02 06:22:08;;;;;;;;;;;;;;;7.91;60.64;98933.25;4965837;28;6966;-86
2021/12/02 06:24:48;;;;;;;;;;;;;;;7.93;60.18;98953.72;4989626;28;7195;-87
2021/12/02 06:27:15;;;;;;;;;;;;;;;7.94;60.93;98949.50;5007434;28;7016;-87
2021/12/02 06:29:41;;;;;;;;;;;;;;;7.95;60.65;98957.19;4984094;28;7210;-86
2021/12/02 06:32:08;;;;;;;;;;;;;;;7.96;61.39;98956.38;4985309;28;6780;-87
2021/12/02 06:34:35;;;;;;;;;;;;;;;8.00;60.79;98962.47;4948030;28;8665;-87
2021/12/02 06:37:01;;;;;;;;;;;;;;;8.01;61.58;98956.53;4984493;28;7076;-86
2021/12/02 06:39:27;;;;;;;;;;;;;;;8.05;61.03;98960.97;5001385;28;8413;-86
2021/12/02 06:41:53;;;;;;;;;;;;;;;8.05;60.87;98964.38;4970890;28;6922;-86
2021/12/02 06:44:19;;;;;;;;;;;;;;;8.08;61.39;98968.72;4946910;28;8541;-86
2021/12/02 06:46:44;;;;;;;;;;;;;;;8.09;60.61;98975.56;4965348;28;7242;-86
2021/12/02 06:49:10;;;;;;;;;;;;;;;8.13;60.70;98976.53;4971003;28;6947;-86
2021/12/02 06:51:36;;;;;;;;;;;;;;;8.14;60.51;98976.59;5004016;28;8254;-86
2021/12/02 06:54:04;;;;;;;;;;;;;;;8.13;60.68;98972.31;4970122;28;6942;-86
2021/12/02 06:56:30;;;;;;;;;;;;;;;8.10;60.45;98973.88;4984880;28;8415;-86
2021/12/02 06:58:56;;;;;;;;;;;;;;;8.09;60.74;98977.25;4988054;28;8001;-86
2021/12/02 07:01:21;;;;;;;;;;;;;;;8.04;61.00;98977.09;4993688;28;7048;-86
2021/12/02 07:03:47;;;;;;;;;;;;;;;7.99;60.21;98984.59;5022042;28;7253;-86
2021/12/02 07:06:13;;;;;;;;;;;;;;;7.90;60.23;98987.66;5005381;28;7004;-86
2021/12/02 07:08:39;;;;;;;;;;;;;;;7.82;59.53;98988.19;4988906;28;7192;-86
2021/12/02 07:11:07;;;;;;;;;;;;;;;7.76;59.65;98991.41;4986672;28;7241;-86
2021/12/02 07:13:35;;;;;;;;;;;;;;;7.71;60.52;98998.00;5002720;28;8567;-86
2021/12/02 07:16:01;;;;;;;;;;;;;;;7.65;60.41;98993.53;5021104;28;8401;-86
2021/12/02 07:18:28;;;;;;;;;;;;;;;7.63;60.93;98992.63;5020391;28;7001;-86
2021/12/02 07:20:54;;;;;;;;;;;;;;;7.60;60.84;99006.13;4982424;28;7208;-86
2021/12/02 07:23:21;;;;;;;;;;;;;;;7.60;60.33;99018.03;5017812;28;6984;-86
2021/12/02 07:25:48;;;;;;;;;;;;;;;7.59;60.50;99016.28;4986548;28;6979;-86
2021/12/02 07:28:16;;;;;;;;;;;;;;;7.58;61.05;99012.84;4963933;28;8760;-86
2021/12/02 07:30:43;;;;;;;;;;;;;;;7.60;61.24;99025.66;4987100;28;6834;-86
2021/12/02 07:33:10;;;;;;;;;;;;;;;7.60;60.57;99025.66;5002603;28;7167;-86
2021/12/02 07:35:36;;;;;;;;;;;;;;;7.60;61.31;99030.78;4988080;28;7372;-86
2021/12/02 07:38:03;;;;;;;;;;;;;;;7.59;60.60;99034.13;4986959;28;7139;-87
2021/12/02 07:40:33;;;;;;;;;;;;;;;7.57;60.68;99041.72;4985653;28;8654;-86
2021/12/02 07:43:00;;;;;;;;;;;;;;;7.52;60.86;99038.09;4981766;28;6836;-86
2021/12/02 07:45:31;;;;;;;;;;;;;;;7.49;60.32;99038.88;4979027;28;6974;-86
2021/12/02 07:47:58;;;;;;;;;;;;;;;7.46;60.96;99035.34;4964116;28;6981;-86
2021/12/02 07:50:24;;;;;;;;;;;;;;;7.44;60.29;99044.63;4992197;28;7201;-86
2021/12/02 07:52:54;;;;;;;;;;;;;;;7.38;60.19;99055.41;5002104;28;8681;-86
2021/12/02 07:55:23;;;;;;;;;;;;;;;7.30;60.49;99052.56;4968099;28;7097;-86
2021/12/02 07:57:51;;;;;;;;;;;;;;;7.23;60.60;99046.38;5006773;28;8449;-87
2021/12/02 08:00:22;;;;;;;;;;;;;;;7.21;60.88;99052.22;4974490;28;7050;-87
2021/12/02 08:02:51;;;;;;;;;;;;;;;7.19;60.49;99052.13;5006400;28;7252;-86
2021/12/02 08:05:21;;;;;;;;;;;;;;;7.21;61.37;99059.84;4983505;28;8555;-86
2021/12/02 08:07:46;;;;;;;;;;;;;;;7.23;60.88;99071.84;4984350;28;6853;-86
2021/12/02 08:10:15;;;;;;;;;;;;;;;7.25;61.33;99077.03;5024234;28;6940;-86
2021/12/02 08:12:50;;;;;;;;;;;;;;;7.27;61.42;99077.06;5006488;28;7279;-86
2021/12/02 08:15:24;;;;;;;;;;;;;;;7.30;61.47;99082.31;5006165;28;6917;-86
2021/12/02 08:17:51;;;;;;;;;;;;;;;7.36;61.36;99092.72;4990873;28;7228;-86
2021/12/02 08:20:19;;;;;;;;;;;;;;;7.42;61.77;99092.97;4967667;28;8712;-86
2021/12/02 08:22:46;;;;;;;;;;;;;;;7.44;61.08;99082.84;4966544;28;7243;-86
2021/12/02 08:25:13;;;;;;;;;;;;;;;7.49;60.78;99087.31;5007291;28;6946;-86
2021/12/02 08:27:40;;;;;;;;;;;;;;;7.54;60.75;99084.94;4988835;28;7094;-86
2021/12/02 08:30:11;;;;;;;;;;;;;;;7.58;61.23;99084.25;4989810;28;8663;-86
2021/12/02 08:32:40;;;;;;;;;;;;;;;7.61;61.02;99096.25;4981562;28;8423;-86
2021/12/02 08:35:06;;;;;;;;;;;;;;;7.64;61.46;99099.81;5005796;28;7205;-86
2021/12/02 08:37:35;;;;;;;;;;;;;;;7.70;61.82;99104.25;4947245;28;7060;-86
2021/12/02 08:40:02;;;;;;;;;;;;;;;7.76;61.28;99113.84;4964217;28;6819;-87
2021/12/02 08:42:31;;;;;;;;;;;;;;;7.85;60.86;99132.03;5004232;28;6977;-86
2021/12/02 08:44:58;;;;;;;;;;;;;;;7.89;60.93;99138.13;5019667;28;7204;-87
2021/12/02 08:47:25;;;;;;;;;;;;;;;7.89;61.13;99131.34;4969518;28;8367;-87
2021/12/02 08:49:55;;;;;;;;;;;;;;;7.80;60.13;99138.63;4958126;28;7475;-87
2021/12/02 08:52:22;;;;;;;;;;;;;;;7.64;59.04;99139.72;4982821;28;7097;-87
2021/12/02 08:54:51;;;;;;;;;;;;;;;7.39;58.92;99140.41;4987488;28;6977;-87
2021/12/02 08:57:21;;;;;;;;;;;;;;;7.15;59.37;99138.63;4972710;28;7254;-86
2021/12/02 08:59:50;;;;;;;;;;;;;;;6.98;59.99;99148.09;4962566;28;6960;-88
2021/12/02 09:02:16;;;;;;;;;;;;;;;6.84;60.38;99142.41;4971599;28;7298;-87
2021/12/02 09:04:42;;;;;;;;;;;;;;;6.76;60.54;99155.69;4989149;28;8383;-87
2021/12/02 09:07:09;;;;;;;;;;;;;;;6.69;60.68;99143.50;4985239;28;6980;-87
2021/12/02 09:09:35;;;;;;;;;;;;;;;6.67;60.92;99152.75;5005321;28;7014;-87
2021/12/02 09:12:03;;;;;;;;;;;;;;;6.67;60.42;99150.22;5021081;28;6964;-86
2021/12/02 09:14:29;;;;;;;;;;;;;;;6.66;60.85;99156.97;5019597;28;6969;-87
2021/12/02 09:16:55;;;;;;;;;;;;;;;6.66;60.88;99150.97;4988772;28;8042;-87
2021/12/02 09:19:21;;;;;;;;;;;;;;;6.69;60.96;99147.72;4971610;28;7045;-87
2021/12/02 09:21:47;;;;;;;;;;;;;;;6.72;61.58;99153.81;5004832;28;7054;-87
2021/12/02 09:24:24;;;;;;;;;;;;;;;6.75;61.42;99168.34;5021071;28;6986;-87
2021/12/02 09:26:52;;;;;;;;;;;;;;;6.81;61.60;99163.53;4973139;28;6992;-87
2021/12/02 09:29:20;;;;;;;;;;;;;;;6.85;61.72;99155.22;4955404;28;7223;-88
2021/12/02 09:31:48;;;;;;;;;;;;;;;6.92;61.35;99161.44;4970717;28;8520;-88
2021/12/02 09:34:15;;;;;;;;;;;;;;;6.95;61.28;99161.56;4985828;28;8937;-87
2021/12/02 09:36:42;;;;;;;;;;;;;;;7.01;61.74;99168.63;5004054;28;7904;-87
2021/12/02 09:39:11;;;;;;;;;;;;;;;7.07;61.92;99164.66;4965795;28;6978;-87
2021/12/02 09:41:38;;;;;;;;;;;;;;;7.18;62.26;99174.41;4963451;28;7213;-87
2021/12/02 09:44:04;;;;;;;;;;;;;;;7.30;61.79;99187.66;5019381;28;7147;-87
2021/12/02 09:46:31;;;;;;;;;;;;;;;7.40;61.56;99190.59;4981319;28;6956;-87
2021/12/02 09:49:00;;;;;;;;;;;;;;;7.47;61.42;99192.59;5003463;28;7376;-87
2021/12/02 09:51:33;;;;;;;;;;;;;;;7.51;62.00;99191.91;4972008;28;7059;-89
2021/12/02 09:54:18;;;;;;;;;;;;;;;7.60;61.81;99202.47;4995735;28;7193;-86
2021/12/02 09:56:47;;;;;;;;;;;;;;;7.67;61.39;99195.94;4958193;28;6986;-90
2021/12/02 10:02:18;;;;;;;;;;;;;;;7.78;60.64;99186.19;4972734;28;7058;-88
2021/12/02 10:04:56;;;;;;;;;;;;;;;7.80;61.20;99192.19;4967199;28;7083;-87
2021/12/02 10:07:46;;;;;;;;;;;;;;;7.84;61.26;99188.97;4972439;28;7217;-89
2021/12/02 10:10:25;;;;;;;;;;;;;;;7.95;61.24;99191.09;4967258;28;6978;-89
2021/12/02 10:13:31;;;;;;;;;;;;;;;8.07;61.22;99191.56;4988961;28;6983;-89
2021/12/02 10:16:20;;;;;;;;;;;;;;;8.16;60.09;99199.56;4964964;28;7316;-89
2021/12/02 10:21:30;;;;;;;;;;;;;;;8.34;61.58;99198.53;4969979;28;7232;-89
2021/12/02 10:24:03;;;;;;;;;;;;;;;8.43;61.18;99195.44;4971446;28;7228;-90
2021/12/02 10:26:40;;;;;;;;;;;;;;;8.46;59.60;99200.69;5002534;28;6988;-90
2021/12/02 10:29:10;;;;;;;;;;;;;;;8.47;59.62;99198.16;4955034;28;7074;-89
2021/12/02 10:31:37;;;;;;;;;;;;;;;8.56;59.42;99195.13;4963891;28;7190;-89
2021/12/02 10:34:07;;;;;;;;;;;;;;;8.66;60.34;99198.88;4970471;28;7325;-89
2021/12/02 10:36:44;;;;;;;;;;;;;;;8.71;60.12;99199.91;4986732;28;7068;-89
2021/12/02 10:39:13;;;;;;;;;;;;;;;8.79;60.38;99189.09;4984466;28;7171;-89
2021/12/02 10:41:43;;;;;;;;;;;;;;;8.87;59.97;99187.66;4986016;28;7077;-89
2021/12/02 10:44:19;;;;;;;;;;;;;;;8.98;59.97;99188.06;4948656;28;7194;-89
2021/12/02 10:47:12;;;;;;;;;;;;;;;9.03;59.71;99186.56;4985284;28;7269;-89
2021/12/02 10:50:11;;;;;;;;;;;;;;;9.08;59.23;99192.69;5002368;28;8314;-89
2021/12/02 10:52:38;;;;;;;;;;;;;;;9.07;58.02;99203.72;4956689;28;7170;-90
2021/12/02 10:55:10;;;;;;;;;;;;;;;9.01;58.46;99183.03;4986723;28;7156;-89
2021/12/02 10:57:44;;;;;;;;;;;;;;;8.93;57.56;99190.47;4971925;28;7251;-90
2021/12/02 11:00:17;;;;;;;;;;;;;;;8.88;58.54;99194.53;4948557;28;7222;-90
2021/12/02 11:02:50;;;;;;;;;;;;;;;8.84;59.09;99202.91;4981273;28;7151;-90
2021/12/02 11:05:25;;;;;;;;;;;;;;;8.81;59.09;99187.47;5002520;28;6995;-90
2021/12/02 11:08:15;;;;;;;;;;;;;;;8.78;57.72;99197.56;4949370;28;7231;-90
2021/12/02 11:10:49;;;;;;;;;;;;;;;8.75;58.56;99188.13;5001580;28;6998;-90
2021/12/02 11:13:28;;;;;;;;;;;;;;;8.71;58.21;99187.16;4954127;28;7003;-90
2021/12/02 11:15:54;;;;;;;;;;;;;;;8.71;58.91;99192.25;4987503;28;7065;-90
2021/12/02 11:18:22;;;;;;;;;;;;;;;8.75;58.38;99196.66;5018543;28;6972;-91
2021/12/02 11:20:58;;;;;;;;;;;;;;;8.79;57.87;99199.31;5003319;28;7243;-90
2021/12/02 11:23:36;;;;;;;;;;;;;;;8.79;57.73;99199.31;4971033;28;7058;-90
2021/12/02 11:26:11;;;;;;;;;;;;;;;8.73;58.23;99205.94;4987274;28;6976;-90
2021/12/02 11:28:42;;;;;;;;;;;;;;;8.73;57.38;99208.50;4972333;28;7293;-90
2021/12/02 11:31:13;;;;;;;;;;;;;;;8.74;57.79;99207.69;4968975;28;7203;-91
2021/12/02 11:33:40;;;;;;;;;;;;;;;8.71;57.34;99211.81;4965549;28;7012;-90
2021/12/02 11:36:17;;;;;;;;;;;;;;;8.72;56.87;99214.44;4980353;28;7051;-90
2021/12/02 11:38:43;;;;;;;;;;;;;;;8.69;57.09;99216.00;4998926;28;6969;-90
2021/12/02 11:41:13;;;;;;;;;;;;;;;8.66;57.09;99216.75;4972309;28;7240;-90
2021/12/02 11:43:39;;;;;;;;;;;;;;;8.64;57.69;99214.94;5005046;28;7165;-90
2021/12/02 11:46:09;;;;;;;;;;;;;;;8.60;58.05;99230.16;4956070;28;7516;-90
2021/12/02 11:48:42;;;;;;;;;;;;;;;8.55;57.83;99229.16;4954637;28;6982;-91
2021/12/02 11:51:16;;;;;;;;;;;;;;;8.51;57.56;99224.72;4974367;28;8443;-91
2021/12/02 11:53:42;;;;;;;;;;;;;;;8.44;57.44;99244.00;4973702;28;7017;-91
2021/12/02 11:56:13;;;;;;;;;;;;;;;8.41;57.30;99250.69;4958644;28;6925;-91
2021/12/02 11:58:40;;;;;;;;;;;;;;;8.37;56.89;99246.28;4974760;28;7001;-91
2021/12/02 12:01:12;;;;;;;;;;;;;;;8.34;58.44;99249.59;4995514;28;6862;-91
2021/12/02 12:03:50;;;;;;;;;;;;;;;8.34;57.48;99252.13;4988589;28;7021;-90
2021/12/02 12:06:31;;;;;;;;;;;;;;;8.32;58.15;99254.63;5018369;28;6993;-91
2021/12/02 12:08:58;;;;;;;;;;;;;;;8.31;58.25;99254.59;4974138;28;7218;-91
2021/12/02 12:11:29;;;;;;;;;;;;;;;8.31;57.97;99252.03;5004641;28;7184;-91
2021/12/02 12:13:57;;;;;;;;;;;;;;;8.28;57.60;99251.88;4982140;28;7300;-91
2021/12/02 12:16:29;;;;;;;;;;;;;;;8.25;57.38;99252.63;4970881;28;7028;-91
2021/12/02 12:19:13;;;;;;;;;;;;;;;8.24;57.78;99263.66;4988654;28;7217;-91
2021/12/02 12:21:44;;;;;;;;;;;;;;;8.23;57.47;99272.13;4951010;28;6991;-91
2021/12/02 12:24:14;;;;;;;;;;;;;;;8.25;57.49;99267.09;4968748;28;7240;-91
2021/12/02 12:26:46;;;;;;;;;;;;;;;8.24;57.34;99260.25;4957185;28;7006;-91
2021/12/02 12:29:13;;;;;;;;;;;;;;;8.23;57.51;99259.38;4958988;28;7266;-91
2021/12/02 12:34:56;;;;;;;;;;;;;;;8.20;57.36;99265.22;4945867;28;7223;-91
2021/12/02 12:37:46;;;;;;;;;;;;;;;8.18;57.90;99260.88;4984895;28;7076;-91
2021/12/02 12:40:40;;;;;;;;;;;;;;;8.13;57.76;99260.72;5002434;28;6964;-90
2021/12/02 12:43:09;;;;;;;;;;;;;;;8.07;56.85;99273.22;4988549;28;7233;-90
2021/12/02 12:45:43;;;;;;;;;;;;;;;8.05;57.43;99275.69;5020550;28;7183;-90
2021/12/02 12:48:31;;;;;;;;;;;;;;;8.07;58.50;99278.31;4988858;28;6979;-91
2021/12/02 12:51:26;;;;;;;;;;;;;;;8.13;58.26;99288.78;4986380;28;6845;-90
2021/12/02 12:53:55;;;;;;;;;;;;;;;8.14;58.44;99280.31;4985599;28;7244;-90
2021/12/02 12:56:37;;;;;;;;;;;;;;;8.17;57.70;99285.53;5018665;28;7243;-90
2021/12/02 12:59:17;;;;;;;;;;;;;;;8.25;58.12;99290.06;4969562;28;6994;-90
2021/12/02 13:01:59;;;;;;;;;;;;;;;8.36;58.26;99288.81;4971385;28;7358;-90
2021/12/02 13:04:27;;;;;;;;;;;;;;;8.48;58.49;99285.88;4949564;28;7020;-90
2021/12/02 13:07:13;;;;;;;;;;;;;;;8.60;57.74;99300.84;4989226;28;7124;-90
2021/12/02 13:09:54;;;;;;;;;;;;;;;8.75;58.92;99287.75;4963267;28;7206;-90
2021/12/02 13:12:43;;;;;;;;;;;;;;;8.89;58.09;99278.91;4980198;28;7288;-90
2021/12/02 13:15:09;;;;;;;;;;;;;;;8.93;57.26;99295.22;4994662;28;8339;-90
2021/12/02 13:17:48;;;;;;;;;;;;;;;8.90;56.59;99277.25;4970827;28;8423;-90
2021/12/02 13:20:21;;;;;;;;;;;;;;;8.87;56.51;99279.66;4995625;28;7080;-90
2021/12/02 13:23:13;;;;;;;;;;;;;;;8.84;56.65;99279.56;4987140;28;7456;-90
2021/12/02 13:25:54;;;;;;;;;;;;;;;8.78;56.44;99285.31;5003332;28;7042;-90
2021/12/02 13:28:38;;;;;;;;;;;;;;;8.73;56.83;99280.03;4972097;28;7254;-90
2021/12/02 13:31:09;;;;;;;;;;;;;;;8.70;56.54;99287.59;5004167;28;7060;-90
2021/12/02 13:33:59;;;;;;;;;;;;;;;8.70;56.52;99294.38;5017692;28;6967;-90
2021/12/02 13:36:31;;;;;;;;;;;;;;;8.65;56.75;99303.56;4961054;28;7200;-90
2021/12/02 13:39:17;;;;;;;;;;;;;;;8.64;56.46;99310.34;5019081;28;10873;-90
2021/12/02 13:41:56;;;;;;;;;;;;;;;8.65;57.13;99317.19;4983432;28;7218;-90
2021/12/02 13:44:27;;;;;;;;;;;;;;;8.66;56.40;99324.03;4971424;28;7604;-90